Time;durP1;ratioP1;P1;durP2;ratioP2;P2;SDS_P1;SDS_P2;PMS_P1;PMS_P2;Temp;Humidity;BMP_temperature;BMP_pressure;BME280_temperature;BME280_humidity;BME280_pressure;Samples;Min_cycle;Max_cycle;Signal;HPM_P1;HPM_P2
2022/10/24 00:00:47;;;;;;;25.20;16.40;;;;;;;12.05;64.83;99064.16;226471;1233;139645;-69
2022/10/24 00:06:11;;;;;;;23.40;15.80;;;;;;;12.12;64.96;99076.60;227546;1225;139323;-69
2022/10/24 00:11:18;;;;;;;27.50;16.80;;;;;;;12.13;64.82;99062.23;227446;1234;140506;-66
2022/10/24 00:16:21;;;;;;;25.70;17.00;;;;;;;12.09;64.66;99065.02;226654;1241;138843;-66
2022/10/24 00:21:24;;;;;;;24.50;16.60;;;;;;;12.04;64.59;99070.70;226572;1240;139414;-65
2022/10/24 00:26:28;;;;;;;23.40;16.20;;;;;;;11.97;64.72;99076.81;227431;1241;139181;-65
2022/10/24 00:31:32;;;;;;;25.80;14.70;;;;;;;11.92;64.36;99068.09;226471;1241;139059;-63
2022/10/24 00:36:35;;;;;;;23.70;15.40;;;;;;;11.92;64.57;99063.69;227328;1236;139897;-68
2022/10/24 00:41:43;;;;;;;22.40;15.40;;;;;;;11.93;64.47;99051.86;226351;1250;139627;-69
2022/10/24 00:46:51;;;;;;;25.30;16.80;;;;;;;11.91;64.65;99055.40;226685;1241;139250;-62
2022/10/24 00:52:01;;;;;;;25.10;15.80;;;;;;;11.90;64.94;99039.80;227465;1242;139382;-68
2022/10/24 00:57:04;;;;;;;21.40;15.80;;;;;;;11.90;64.98;99037.52;227337;1234;139344;-66
2022/10/24 01:02:08;;;;;;;20.50;14.90;;;;;;;11.86;64.91;99049.12;226217;1244;139662;-70
2022/10/24 01:07:20;;;;;;;20.30;14.70;;;;;;;11.81;65.17;99048.71;226412;1241;139641;-68
2022/10/24 01:12:41;;;;;;;20.80;15.00;;;;;;;11.77;65.01;99050.44;226654;1240;139614;-67
2022/10/24 01:17:53;;;;;;;22.60;15.50;;;;;;;11.79;65.25;99053.61;226304;1249;139976;-63
2022/10/24 01:23:33;;;;;;;20.70;14.40;;;;;;;11.82;64.81;99055.55;226214;1244;140254;-61
2022/10/24 01:28:59;;;;;;;23.10;14.80;;;;;;;11.83;65.09;99054.97;227318;1234;139443;-64
2022/10/24 01:34:05;;;;;;;;;;;;;;;11.79;65.02;99050.61;227209;1234;140068;-61
2022/10/24 01:39:13;;;;;;;22.10;14.80;;;;;;;11.71;64.85;99035.73;226769;1248;125570;-63
2022/10/24 01:44:29;;;;;;;19.30;14.50;;;;;;;11.64;64.87;99032.80;226599;1227;139022;-63
2022/10/24 01:49:36;;;;;;;19.00;14.10;;;;;;;11.58;64.69;99022.20;226418;1249;138944;-64
2022/10/24 01:54:42;;;;;;;19.40;13.10;;;;;;;11.49;64.85;99020.48;226591;1249;139649;-62
2022/10/24 01:59:47;;;;;;;25.90;13.80;;;;;;;11.42;64.79;99007.97;226594;1248;139796;-64
2022/10/24 02:04:53;;;;;;;22.30;14.10;;;;;;;11.43;64.76;99012.00;226591;1249;140039;-65
2022/10/24 02:10:01;;;;;;;23.10;14.20;;;;;;;11.42;64.97;99003.54;226672;1237;139838;-64
2022/10/24 02:15:15;;;;;;;21.30;14.50;;;;;;;11.41;64.90;99006.58;226383;1241;139466;-64
2022/10/24 02:20:27;;;;;;;23.00;14.60;;;;;;;11.41;64.98;99018.70;226722;1239;139081;-65
2022/10/24 02:25:34;;;;;;;20.30;13.80;;;;;;;11.39;65.22;99020.08;226525;1240;139747;-62
2022/10/24 02:30:43;;;;;;;26.10;14.30;;;;;;;11.37;64.98;99011.49;226450;1241;139460;-62
2022/10/24 02:35:49;;;;;;;21.70;14.20;;;;;;;11.34;64.99;98999.96;226365;1241;139215;-65
2022/10/24 02:40:53;;;;;;;;;;;;;;;11.31;65.14;99000.50;226716;1238;140385;-65
2022/10/24 02:45:57;;;;;;;20.60;14.40;;;;;;;11.28;65.15;99007.45;226670;1249;125321;-64
2022/10/24 02:51:01;;;;;;;23.00;14.00;;;;;;;11.26;65.24;99004.41;226494;1249;139476;-65
2022/10/24 02:56:04;;;;;;;22.30;15.40;;;;;;;11.30;65.26;99001.63;226331;1241;140343;-59
2022/10/24 03:01:07;;;;;;;39.90;25.90;;;;;;;11.35;65.09;99003.95;226712;1241;140218;-63
2022/10/24 03:06:11;;;;;;;29.00;17.80;;;;;;;11.41;65.29;99001.63;226580;1240;139040;-64
2022/10/24 03:11:14;;;;;;;23.50;15.50;;;;;;;11.43;65.51;98992.81;226281;1243;139747;-61
2022/10/24 03:16:17;;;;;;;44.80;32.20;;;;;;;11.38;65.45;98993.10;226632;1236;142129;-62
2022/10/24 03:21:20;;;;;;;23.30;16.40;;;;;;;11.36;65.35;98991.48;226493;1238;140524;-63
2022/10/24 03:26:24;;;;;;;25.40;15.30;;;;;;;11.35;65.22;98992.09;226343;1240;139394;-62
2022/10/24 03:31:27;;;;;;;19.80;14.90;;;;;;;11.33;65.27;98980.11;227465;1234;139195;-63
2022/10/24 03:36:30;;;;;;;21.50;14.80;;;;;;;11.33;65.42;98990.25;226457;1241;140063;-60
2022/10/24 03:41:33;;;;;;;20.80;13.20;;;;;;;11.35;65.67;98989.02;226654;1249;139993;-61
2022/10/24 03:46:36;;;;;;;22.70;14.70;;;;;;;11.42;65.35;98977.26;226433;1249;140375;-63
2022/10/24 03:51:39;;;;;;;25.60;15.30;;;;;;;11.46;66.01;98965.56;226250;1236;139228;-64
2022/10/24 03:56:43;;;;;;;22.50;14.50;;;;;;;11.50;65.95;98954.63;227324;1228;140094;-66
2022/10/24 04:01:46;;;;;;;41.00;27.70;;;;;;;11.54;66.06;98962.37;226354;1234;140742;-63
2022/10/24 04:06:50;;;;;;;27.10;16.10;;;;;;;11.56;65.74;98972.59;226533;1241;138943;-65
2022/10/24 04:11:53;;;;;;;24.30;15.30;;;;;;;11.62;65.97;98979.63;226266;1240;139169;-64
2022/10/24 04:16:56;;;;;;;26.40;15.00;;;;;;;11.66;66.13;98977.77;226249;1244;139280;-64
2022/10/24 04:21:59;;;;;;;22.50;13.90;;;;;;;11.70;65.79;98979.09;226735;1249;140036;-66
2022/10/24 04:27:02;;;;;;;26.60;15.20;;;;;;;11.78;66.08;98982.10;227446;1237;140326;-67
2022/10/24 04:32:05;;;;;;;21.30;12.40;;;;;;;11.87;66.40;98968.34;226205;1236;139172;-63
2022/10/24 04:37:08;;;;;;;23.50;14.50;;;;;;;11.92;66.35;98974.41;226224;1244;140169;-67
2022/10/24 04:42:11;;;;;;;22.40;14.70;;;;;;;11.97;66.41;98974.42;226759;1245;139494;-67
2022/10/24 04:47:15;;;;;;;23.00;14.60;;;;;;;12.01;66.33;98981.27;227527;1233;139613;-62
2022/10/24 04:52:17;;;;;;;25.40;13.90;;;;;;;12.03;66.71;98980.05;226315;1241;140275;-65
2022/10/24 04:57:20;;;;;;;22.80;13.20;;;;;;;12.06;66.56;98976.11;226507;1244;139909;-62
2022/10/24 05:02:23;;;;;;;19.70;13.20;;;;;;;12.16;67.08;98978.82;226672;1244;139844;-62
2022/10/24 05:07:26;;;;;;;19.90;12.30;;;;;;;12.29;66.97;98981.46;227487;1234;139399;-61
2022/10/24 05:12:29;;;;;;;19.50;12.40;;;;;;;12.41;67.36;98976.91;226374;1234;139641;-62
2022/10/24 05:17:33;;;;;;;27.70;14.60;;;;;;;12.50;66.86;98976.60;226177;1251;139150;-62
2022/10/24 05:22:36;;;;;;;28.60;15.50;;;;;;;12.49;66.67;98966.30;226200;1243;139189;-62
2022/10/24 05:27:39;;;;;;;26.70;15.60;;;;;;;12.43;66.30;98955.88;226633;1241;140271;-61
2022/10/24 05:32:42;;;;;;;26.30;14.50;;;;;;;12.37;66.13;98953.70;226242;1243;139199;-60
2022/10/24 05:37:45;;;;;;;29.60;14.20;;;;;;;12.29;66.03;98962.78;226226;1241;139571;-62
2022/10/24 05:42:51;;;;;;;26.90;14.40;;;;;;;12.22;66.11;98970.61;226359;1241;139695;-71
2022/10/24 05:47:54;;;;;;;24.70;13.70;;;;;;;12.22;66.09;98975.00;226281;1240;140187;-61
2022/10/24 05:52:57;;;;;;;18.40;12.10;;;;;;;12.32;66.71;98982.87;227387;1241;140056;-61
2022/10/24 05:58:00;;;;;;;14.50;10.60;;;;;;;12.45;67.16;98983.50;226292;1241;139155;-63
2022/10/24 06:03:03;;;;;;;17.20;11.60;;;;;;;12.56;67.03;98987.02;226742;1234;139617;-61
2022/10/24 06:08:06;;;;;;;16.00;11.80;;;;;;;12.60;67.01;98970.39;226483;1249;139388;-60
2022/10/24 06:13:09;;;;;;;18.60;13.20;;;;;;;12.63;66.83;98970.86;226508;1244;139118;-59
2022/10/24 06:18:12;;;;;;;22.40;13.50;;;;;;;12.64;66.69;98982.91;226318;1242;140149;-59
2022/10/24 06:23:15;;;;;;;23.40;14.00;;;;;;;12.69;67.04;98982.90;226437;1237;139054;-60
2022/10/24 06:28:18;;;;;;;22.00;13.50;;;;;;;12.79;66.95;98982.70;226458;1241;139472;-60
2022/10/24 06:33:21;;;;;;;21.60;13.70;;;;;;;12.88;66.74;98992.70;227326;1235;139859;-61
2022/10/24 06:38:24;;;;;;;21.40;14.70;;;;;;;12.97;67.08;99002.90;226302;1250;139419;-60
2022/10/24 06:43:27;;;;;;;25.20;14.90;;;;;;;13.09;67.20;99005.83;227457;1226;139840;-65
2022/10/24 06:48:30;;;;;;;22.50;13.90;;;;;;;13.19;66.99;99008.50;226703;1239;139310;-65
2022/10/24 06:53:33;;;;;;;21.60;14.60;;;;;;;13.24;67.05;99007.76;226413;1252;139212;-64
2022/10/24 06:58:37;;;;;;;22.80;14.20;;;;;;;13.27;66.95;99011.32;227355;1237;140755;-65
2022/10/24 07:03:40;;;;;;;24.90;14.30;;;;;;;13.30;66.93;99015.55;227454;1234;139039;-64
2022/10/24 07:08:43;;;;;;;22.00;14.60;;;;;;;13.39;67.07;99012.55;226420;1238;139987;-64
2022/10/24 07:13:46;;;;;;;28.00;14.50;;;;;;;13.52;67.12;99009.66;226442;1239;139923;-65
2022/10/24 07:18:50;;;;;;;26.50;15.20;;;;;;;13.60;67.08;99008.14;227457;1227;139140;-66
2022/10/24 07:23:54;;;;;;;23.00;14.90;;;;;;;13.70;67.26;99005.38;226600;1239;139584;-63
2022/10/24 07:29:01;;;;;;;25.60;14.40;;;;;;;13.86;67.51;99002.05;227422;1244;140254;-59
2022/10/24 07:34:09;;;;;;;22.80;14.70;;;;;;;14.07;67.58;98996.94;226443;1252;139234;-58
2022/10/24 07:39:14;;;;;;;21.00;14.00;;;;;;;14.23;67.41;98990.86;226356;1234;140075;-59
2022/10/24 07:44:17;;;;;;;23.90;13.50;;;;;;;14.42;67.46;98994.73;226348;1242;141212;-60
2022/10/24 07:49:20;;;;;;;22.60;14.00;;;;;;;14.58;67.35;98995.26;227478;1226;139316;-64
2022/10/24 07:54:24;;;;;;;21.50;14.80;;;;;;;14.69;67.19;98987.41;226414;1245;138996;-61
2022/10/24 07:59:28;;;;;;;23.10;14.30;;;;;;;14.76;67.16;98986.82;226257;1242;139077;-62
2022/10/24 08:04:44;;;;;;;26.80;15.10;;;;;;;14.82;67.05;98966.92;226062;1250;139439;-61
2022/10/24 08:09:49;;;;;;;21.90;13.40;;;;;;;14.90;67.12;98970.51;226109;1248;141383;-62
2022/10/24 08:14:54;;;;;;;22.70;13.30;;;;;;;15.08;67.22;98975.91;227080;1235;140310;-61
2022/10/24 08:19:57;;;;;;;22.20;13.00;;;;;;;15.28;67.25;98987.10;227185;1237;139633;-63
2022/10/24 08:25:01;;;;;;;18.50;11.70;;;;;;;15.46;67.16;98989.92;226050;1246;138911;-60
2022/10/24 08:30:05;;;;;;;91.40;62.50;;;;;;;15.61;67.13;98983.11;226123;1245;139153;-61
2022/10/24 08:35:08;;;;;;;18.20;12.10;;;;;;;15.78;67.13;98976.32;226115;1241;139943;-61
2022/10/24 08:40:18;;;;;;;16.00;9.90;;;;;;;15.96;66.79;98966.95;226179;1242;140902;-61
2022/10/24 08:45:59;;;;;;;17.80;9.30;;;;;;;16.12;66.63;98958.95;225925;1245;139187;-62
2022/10/24 08:51:20;;;;;;;13.00;9.20;;;;;;;16.35;66.27;98957.33;225776;1245;140646;-62
2022/10/24 08:56:28;;;;;;;14.30;9.30;;;;;;;16.56;66.23;98935.20;226164;1238;139642;-63
2022/10/24 09:01:47;;;;;;;16.50;9.40;;;;;;;16.81;66.33;98918.70;226058;1243;139407;-62
2022/10/24 09:06:54;;;;;;;17.00;9.90;;;;;;;17.08;66.07;98922.02;226543;1241;138760;-62
2022/10/24 09:11:59;;;;;;;12.90;8.90;;;;;;;17.34;65.76;98925.94;227596;1234;140931;-60
2022/10/24 09:17:15;;;;;;;;;;;;;;;17.56;65.44;98924.41;227347;1233;140362;-64
2022/10/24 09:22:21;;;;;;;16.10;8.30;;;;;;;17.70;65.10;98929.77;227519;1234;125385;-62
2022/10/24 09:27:28;;;;;;;14.90;8.70;;;;;;;17.81;64.67;98931.14;226416;1240;139562;-61
2022/10/24 09:32:34;;;;;;;15.80;8.00;;;;;;;17.90;64.55;98924.70;226424;1254;139689;-62
2022/10/24 09:37:41;;;;;;;13.00;7.10;;;;;;;18.03;64.28;98916.21;226350;1241;139649;-63
2022/10/24 09:42:51;;;;;;;13.30;8.00;;;;;;;18.21;64.27;98930.32;226614;1252;139277;-61
2022/10/24 09:48:00;;;;;;;19.10;8.10;;;;;;;18.34;64.10;98936.15;227522;1230;139492;-62
2022/10/24 09:53:04;;;;;;;14.80;7.80;;;;;;;18.45;63.79;98942.38;226480;1241;139611;-62
2022/10/24 09:58:17;;;;;;;13.90;7.30;;;;;;;18.55;63.62;98942.87;227427;1227;138910;-63
2022/10/24 10:03:21;;;;;;;11.80;6.50;;;;;;;18.63;63.36;98926.44;227370;1245;139273;-64
2022/10/24 10:08:31;;;;;;;15.30;7.20;;;;;;;18.73;63.17;98919.38;227482;1226;139814;-62
2022/10/24 10:13:51;;;;;;;13.60;6.40;;;;;;;18.81;62.97;98915.07;226616;1234;138911;-61
2022/10/24 10:19:14;;;;;;;11.30;5.80;;;;;;;18.83;62.76;98904.98;226343;1242;138857;-63
2022/10/24 10:24:44;;;;;;;16.60;6.50;;;;;;;18.86;62.45;98905.41;226677;1235;139221;-63
2022/10/24 10:29:47;;;;;;;12.90;6.00;;;;;;;18.92;62.46;98902.34;227454;1234;139616;-62
2022/10/24 10:35:01;;;;;;;12.70;6.30;;;;;;;19.02;62.33;98904.14;226332;1241;139703;-64
2022/10/24 10:40:30;;;;;;;11.40;6.00;;;;;;;19.13;62.23;98920.16;226228;1245;139398;-62
2022/10/24 10:45:47;;;;;;;9.00;5.60;;;;;;;19.21;62.12;98926.44;226355;1242;139034;-63
2022/10/24 10:51:06;;;;;;;9.80;5.40;;;;;;;19.23;61.88;98922.73;226530;1254;139011;-61
2022/10/24 10:56:40;;;;;;;10.10;5.50;;;;;;;19.27;61.67;98914.81;226672;1233;140105;-64
2022/10/24 11:01:43;;;;;;;10.80;5.80;;;;;;;19.29;61.48;98910.50;226439;1234;139287;-61
2022/10/24 11:06:56;;;;;;;15.20;5.90;;;;;;;19.32;61.40;98905.16;226713;1249;139245;-64
2022/10/24 11:12:13;;;;;;;19.10;6.50;;;;;;;19.34;61.45;98924.13;227612;1231;139930;-63
2022/10/24 11:17:28;;;;;;;13.90;5.60;;;;;;;19.39;61.35;98925.09;226478;1241;138836;-62
2022/10/24 11:22:40;;;;;;;9.00;6.00;;;;;;;19.50;61.38;98915.54;226366;1233;139187;-62
2022/10/24 11:27:53;;;;;;;15.10;5.70;;;;;;;19.66;61.53;98908.48;227412;1235;138799;-63
2022/10/24 11:33:00;;;;;;;11.40;5.00;;;;;;;19.84;61.36;98909.75;226580;1250;138992;-62
2022/10/24 11:38:13;;;;;;;14.60;5.70;;;;;;;20.03;61.22;98915.38;227492;1234;139683;-64
2022/10/24 11:43:26;;;;;;;11.80;5.40;;;;;;;20.23;61.04;98913.83;226176;1243;139995;-64
2022/10/24 11:48:38;;;;;;;8.00;4.70;;;;;;;20.43;61.09;98914.85;227442;1234;139582;-64
2022/10/24 11:53:50;;;;;;;8.80;4.40;;;;;;;20.61;60.57;98910.73;226706;1241;140082;-64
2022/10/24 11:59:11;;;;;;;11.60;4.10;;;;;;;20.72;60.00;98910.38;226650;1250;140000;-62
2022/10/24 12:04:26;;;;;;;12.20;4.20;;;;;;;20.76;59.57;98903.61;226582;1241;138870;-64
2022/10/24 12:09:41;;;;;;;7.40;4.10;;;;;;;20.80;59.25;98898.17;226688;1235;139330;-62
2022/10/24 12:14:51;;;;;;;7.80;3.60;;;;;;;20.84;59.08;98891.05;226672;1234;138858;-62
2022/10/24 12:19:56;;;;;;;9.50;3.70;;;;;;;20.82;58.41;98888.89;227464;1234;139609;-64
2022/10/24 12:25:18;;;;;;;8.70;3.80;;;;;;;20.81;58.35;98881.64;227274;1238;139245;-62
2022/10/24 12:30:25;;;;;;;8.80;4.10;;;;;;;20.81;58.08;98874.73;227582;1233;138753;-61
2022/10/24 12:35:34;;;;;;;7.60;2.90;;;;;;;20.79;57.68;98862.88;227504;1242;138914;-62
2022/10/24 12:40:56;;;;;;;8.40;3.40;;;;;;;20.77;57.47;98859.41;226571;1248;139718;-63
2022/10/24 12:46:15;;;;;;;7.40;3.00;;;;;;;20.84;57.43;98852.77;226338;1250;139175;-63
2022/10/24 12:51:31;;;;;;;8.30;3.30;;;;;;;20.89;57.04;98856.03;226660;1241;139574;-65
2022/10/24 12:56:57;;;;;;;5.60;3.00;;;;;;;20.93;56.76;98851.10;227399;1232;139070;-63
2022/10/24 13:02:38;;;;;;;7.20;3.50;;;;;;;20.94;56.47;98846.80;227316;1231;138802;-64
2022/10/24 13:07:54;;;;;;;5.40;2.80;;;;;;;20.94;56.28;98842.14;227162;1236;140895;-64
2022/10/24 13:13:26;;;;;;;7.90;2.80;;;;;;;21.02;56.22;98832.96;226600;1241;139990;-63
2022/10/24 13:19:02;;;;;;;5.70;2.80;;;;;;;21.15;56.07;98828.51;226778;1238;138628;-64
2022/10/24 13:24:38;;;;;;;6.50;2.60;;;;;;;21.19;55.62;98830.20;226037;1242;139046;-66
2022/10/24 13:29:42;;;;;;;4.10;2.60;;;;;;;21.16;55.34;98832.23;226160;1241;139912;-63
2022/10/24 13:34:54;;;;;;;5.80;2.60;;;;;;;21.13;55.15;98840.70;226679;1244;139140;-64
2022/10/24 13:40:08;;;;;;;6.20;2.40;;;;;;;21.09;55.05;98846.13;227442;1234;138988;-64
2022/10/24 13:45:26;;;;;;;6.50;3.00;;;;;;;21.01;54.97;98845.91;226471;1238;138950;-64
2022/10/24 13:50:32;;;;;;;4.70;2.80;;;;;;;20.97;54.93;98837.89;227459;1237;138962;-62
2022/10/24 13:55:45;;;;;;;9.10;2.80;;;;;;;20.96;55.01;98837.92;226646;1242;139821;-65
2022/10/24 14:00:56;;;;;;;6.50;2.80;;;;;;;20.97;55.07;98840.56;227550;1234;138910;-63
2022/10/24 14:06:02;;;;;;;7.90;2.80;;;;;;;20.98;55.03;98852.02;226440;1244;139733;-64
2022/10/24 14:11:14;;;;;;;4.00;2.30;;;;;;;20.95;55.01;98849.76;226431;1245;138644;-63
2022/10/24 14:16:25;;;;;;;4.90;2.60;;;;;;;20.95;55.09;98849.58;226393;1233;138746;-66
2022/10/24 14:21:43;;;;;;;8.40;2.80;;;;;;;20.92;54.99;98849.94;226497;1234;138985;-67
2022/10/24 14:26:52;;;;;;;4.80;2.60;;;;;;;20.86;54.83;98850.74;226648;1241;139283;-63
2022/10/24 14:32:00;;;;;;;7.90;2.70;;;;;;;20.84;54.88;98849.35;226572;1240;139192;-63
2022/10/24 14:37:06;;;;;;;10.70;3.70;;;;;;;20.82;54.73;98845.66;226214;1236;139145;-64
2022/10/24 14:42:14;;;;;;;6.90;2.50;;;;;;;20.79;54.69;98850.30;227496;1234;140424;-65
2022/10/24 14:47:20;;;;;;;9.60;2.90;;;;;;;20.75;54.64;98853.98;226439;1249;138554;-65
2022/10/24 14:52:31;;;;;;;11.60;3.10;;;;;;;20.69;54.52;98853.64;226432;1241;138834;-66
2022/10/24 14:57:36;;;;;;;8.20;3.00;;;;;;;20.65;54.64;98855.73;226110;1237;139628;-63
2022/10/24 15:02:40;;;;;;;8.00;3.20;;;;;;;20.61;54.71;98856.89;226606;1227;139337;-64
2022/10/24 15:07:48;;;;;;;5.60;2.80;;;;;;;20.56;54.76;98857.55;226605;1241;139099;-66
2022/10/24 15:13:19;;;;;;;11.20;3.70;;;;;;;20.49;54.80;98867.45;226564;1234;139459;-66
2022/10/24 15:18:40;;;;;;;6.50;3.10;;;;;;;20.42;54.98;98872.78;227486;1234;138842;-67
2022/10/24 15:23:49;;;;;;;7.10;3.20;;;;;;;20.34;54.91;98866.55;226402;1241;139084;-65
2022/10/24 15:29:05;;;;;;;8.20;3.40;;;;;;;20.28;55.17;98875.51;226541;1234;139013;-67
2022/10/24 15:34:21;;;;;;;10.90;3.20;;;;;;;20.23;55.24;98877.40;226524;1237;139405;-66
2022/10/24 15:39:25;;;;;;;10.30;3.70;;;;;;;20.19;55.35;98879.85;226228;1240;139225;-64
2022/10/24 15:44:29;;;;;;;9.60;4.60;;;;;;;20.16;55.47;98878.04;226095;1250;138862;-65
2022/10/24 15:49:33;;;;;;;8.50;3.80;;;;;;;20.10;55.59;98874.84;226192;1233;138806;-62
2022/10/24 15:54:36;;;;;;;10.50;3.80;;;;;;;20.02;55.67;98876.34;226637;1236;139316;-64
2022/10/24 15:59:39;;;;;;;9.90;4.10;;;;;;;19.95;55.79;98878.58;226645;1238;139391;-64
2022/10/24 16:04:43;;;;;;;11.90;4.30;;;;;;;19.89;56.08;98876.33;226458;1241;139013;-64
2022/10/24 16:09:46;;;;;;;8.80;4.00;;;;;;;19.84;56.22;98876.09;227406;1241;139142;-63
2022/10/24 16:14:49;;;;;;;10.20;4.10;;;;;;;19.77;56.40;98878.60;226490;1238;139205;-63
2022/10/24 16:19:52;;;;;;;10.10;4.00;;;;;;;19.69;56.56;98883.64;227449;1238;139301;-63
2022/10/24 16:24:55;;;;;;;9.30;4.60;;;;;;;19.63;56.70;98878.98;226585;1234;139277;-63
2022/10/24 16:29:58;;;;;;;9.10;4.70;;;;;;;19.59;56.91;98885.31;227350;1231;138883;-63
2022/10/24 16:35:02;;;;;;;15.70;6.00;;;;;;;19.54;57.14;98884.33;226248;1244;139771;-63
2022/10/24 16:40:07;;;;;;;8.50;5.90;;;;;;;19.52;57.35;98880.80;226203;1241;139945;-63
2022/10/24 16:45:10;;;;;;;7.90;4.80;;;;;;;19.48;57.42;98878.55;227329;1234;138764;-62
2022/10/24 16:50:22;;;;;;;15.40;6.10;;;;;;;19.44;57.53;98887.39;226542;1237;140888;-64
2022/10/24 16:55:27;;;;;;;12.50;5.30;;;;;;;19.38;57.57;98893.37;226403;1245;139192;-64
2022/10/24 17:00:30;;;;;;;17.80;6.30;;;;;;;19.29;57.51;98894.12;226414;1241;139988;-63
2022/10/24 17:05:33;;;;;;;14.10;6.10;;;;;;;19.23;57.89;98902.31;226430;1241;139365;-65
2022/10/24 17:10:37;;;;;;;16.10;6.50;;;;;;;19.23;58.24;98903.71;226651;1247;139363;-66
2022/10/24 17:15:40;;;;;;;16.10;6.50;;;;;;;19.19;58.23;98901.21;226486;1227;138980;-66
2022/10/24 17:20:44;;;;;;;36.90;7.70;;;;;;;19.08;58.18;98897.06;226397;1241;139542;-64
2022/10/24 17:25:47;;;;;;;16.80;6.60;;;;;;;18.91;58.31;98890.73;226528;1244;140776;-63
2022/10/24 17:30:51;;;;;;;13.80;7.30;;;;;;;18.82;58.81;98887.27;226598;1235;140106;-64
2022/10/24 17:35:56;;;;;;;19.10;8.30;;;;;;;18.80;59.29;98879.87;226311;1234;139721;-66
2022/10/24 17:41:26;;;;;;;24.10;8.20;;;;;;;18.82;59.46;98879.39;227390;1237;139462;-63
2022/10/24 17:46:30;;;;;;;19.40;8.30;;;;;;;18.88;59.58;98878.77;227159;1231;140759;-65
2022/10/24 17:51:36;;;;;;;18.40;8.40;;;;;;;18.93;59.77;98878.59;226487;1227;140097;-62
2022/10/24 17:56:40;;;;;;;17.80;8.20;;;;;;;18.98;59.92;98876.15;226361;1241;139747;-62
2022/10/24 18:01:43;;;;;;;18.50;8.40;;;;;;;18.99;59.90;98876.95;226206;1243;140527;-62
2022/10/24 18:06:46;;;;;;;16.00;8.90;;;;;;;18.98;60.01;98877.83;226373;1237;139376;-62
2022/10/24 18:11:58;;;;;;;18.90;8.90;;;;;;;18.92;60.12;98878.85;226610;1238;138812;-63
2022/10/24 18:17:01;;;;;;;18.60;9.10;;;;;;;18.90;60.19;98880.52;226733;1241;138947;-63
2022/10/24 18:22:04;;;;;;;17.70;9.10;;;;;;;18.82;60.08;98877.90;226759;1238;139294;-62
2022/10/24 18:27:12;;;;;;;20.10;9.00;;;;;;;18.64;59.95;98882.16;226829;1240;139063;-67
2022/10/24 18:32:16;;;;;;;15.60;8.20;;;;;;;18.43;59.96;98880.97;226894;1247;139378;-63
2022/10/24 18:37:19;;;;;;;15.10;8.00;;;;;;;18.27;60.14;98880.22;226818;1237;139302;-63
2022/10/24 18:42:54;;;;;;;16.20;8.30;;;;;;;18.13;60.31;98880.47;227721;1231;139683;-69
2022/10/24 18:47:57;;;;;;;54.60;34.40;;;;;;;17.98;60.56;98874.02;226837;1233;139065;-66
2022/10/24 18:53:04;;;;;;;;;;;;;;;17.84;60.82;98870.48;226864;1241;139559;-63
2022/10/24 18:58:12;;;;;;;22.80;9.80;;;;;;;17.68;61.05;98866.05;226792;1233;125420;-63
2022/10/24 19:03:38;;;;;;;22.30;10.80;;;;;;;17.55;61.17;98868.86;226757;1249;139475;-64
2022/10/24 19:08:41;;;;;;;19.50;10.30;;;;;;;17.43;61.38;98863.70;226782;1248;139075;-64
2022/10/24 19:13:45;;;;;;;27.90;10.50;;;;;;;17.33;61.55;98860.33;227533;1226;140002;-63
2022/10/24 19:18:53;;;;;;;41.60;28.50;;;;;;;17.28;61.72;98857.45;226632;1234;139933;-62
2022/10/24 19:23:56;;;;;;;23.90;10.70;;;;;;;17.26;62.03;98841.77;227531;1237;141347;-64
2022/10/24 19:28:59;;;;;;;26.70;10.10;;;;;;;17.24;62.05;98833.75;226724;1238;140324;-61
2022/10/24 19:34:09;;;;;;;21.90;10.50;;;;;;;17.17;62.20;98835.52;226825;1247;139451;-64
2022/10/24 19:39:12;;;;;;;25.70;10.40;;;;;;;17.12;62.53;98842.09;226259;1236;140933;-63
2022/10/24 19:44:15;;;;;;;58.50;37.40;;;;;;;17.06;62.63;98852.85;226341;1236;139699;-62
2022/10/24 19:49:18;;;;;;;53.40;35.60;;;;;;;17.04;63.20;98868.62;226643;1236;141033;-64
2022/10/24 19:54:21;;;;;;;18.60;10.60;;;;;;;17.09;63.39;98876.92;227011;1240;139714;-63
2022/10/24 19:59:32;;;;;;;23.30;12.00;;;;;;;17.20;63.79;98873.39;226414;1237;139850;-63
2022/10/24 20:04:38;;;;;;;19.00;10.00;;;;;;;17.37;63.92;98868.06;226229;1238;139444;-64
2022/10/24 20:09:43;;;;;;;110.20;80.00;;;;;;;17.42;63.64;98859.51;226465;1239;139711;-64
2022/10/24 20:14:50;;;;;;;18.90;11.10;;;;;;;17.47;63.54;98854.78;226657;1233;139940;-63
2022/10/24 20:19:58;;;;;;;33.20;11.10;;;;;;;17.39;63.28;98859.08;226498;1233;139281;-63
2022/10/24 20:25:02;;;;;;;33.70;11.40;;;;;;;17.29;63.07;98866.87;227527;1233;139853;-63
2022/10/24 20:30:07;;;;;;;26.30;13.00;;;;;;;17.22;63.38;98879.31;226798;1237;139100;-63
2022/10/24 20:35:21;;;;;;;33.90;12.10;;;;;;;17.34;63.58;98873.52;227402;1233;141200;-63
2022/10/24 20:40:27;;;;;;;26.30;11.20;;;;;;;17.36;63.38;98866.37;226460;1235;138924;-64
2022/10/24 20:45:33;;;;;;;19.60;10.00;;;;;;;17.32;63.25;98865.14;227284;1226;139340;-64
2022/10/24 20:50:36;;;;;;;23.80;13.90;;;;;;;17.24;63.27;98870.13;226725;1233;140293;-63
2022/10/24 20:55:39;;;;;;;22.00;14.70;;;;;;;17.24;63.92;98873.04;227611;1230;139518;-63
2022/10/24 21:00:46;;;;;;;22.90;14.50;;;;;;;17.36;64.32;98877.16;226849;1241;139281;-61
2022/10/24 21:05:49;;;;;;;24.60;14.10;;;;;;;17.47;64.26;98879.53;227711;1234;139288;-62
2022/10/24 21:10:52;;;;;;;21.10;13.70;;;;;;;17.57;64.20;98883.20;226419;1244;139875;-62
2022/10/24 21:15:56;;;;;;;21.10;13.10;;;;;;;17.64;64.13;98889.02;226456;1233;139585;-63
2022/10/24 21:21:12;;;;;;;22.90;13.70;;;;;;;17.68;64.08;98885.21;226660;1241;138922;-63
2022/10/24 21:26:15;;;;;;;23.00;13.70;;;;;;;17.72;64.17;98880.15;226858;1247;139220;-65
2022/10/24 21:31:21;;;;;;;22.10;14.40;;;;;;;17.78;64.15;98887.39;226861;1240;139727;-64
2022/10/24 21:36:24;;;;;;;20.30;13.40;;;;;;;17.79;63.79;98889.63;226863;1241;139926;-64
2022/10/24 21:41:27;;;;;;;18.70;11.80;;;;;;;17.76;63.85;98882.23;227656;1234;140361;-64
2022/10/24 21:46:32;;;;;;;19.10;10.70;;;;;;;17.76;63.87;98885.09;226939;1241;140021;-63
2022/10/24 21:51:36;;;;;;;18.60;10.40;;;;;;;17.76;63.90;98882.92;226915;1233;139777;-63
2022/10/24 21:56:39;;;;;;;17.50;10.10;;;;;;;17.73;63.92;98880.11;227614;1233;138645;-64
2022/10/24 22:01:44;;;;;;;16.70;9.00;;;;;;;17.62;64.10;98885.60;227676;1226;139015;-64
2022/10/24 22:06:48;;;;;;;;;;;;;;;17.57;64.27;98888.48;227039;1227;139252;-63
2022/10/24 22:11:53;;;;;;;17.90;9.50;;;;;;;17.46;64.49;98891.56;226630;1234;124985;-63
2022/10/24 22:16:56;;;;;;;17.50;11.00;;;;;;;17.36;64.60;98898.64;227614;1238;139820;-63
2022/10/24 22:21:59;;;;;;;17.30;11.00;;;;;;;17.37;65.10;98902.88;227424;1233;139895;-63
2022/10/24 22:27:02;;;;;;;13.90;10.00;;;;;;;17.47;65.44;98905.89;227438;1242;139965;-63
2022/10/24 22:32:09;;;;;;;14.10;9.70;;;;;;;17.53;65.74;98908.86;226540;1249;141532;-63
2022/10/24 22:37:27;;;;;;;17.00;10.40;;;;;;;17.54;65.81;98914.05;226289;1248;139069;-63
2022/10/24 22:42:32;;;;;;;16.40;10.90;;;;;;;17.48;65.77;98911.67;226592;1241;139345;-64
2022/10/24 22:47:43;;;;;;;15.30;9.90;;;;;;;17.39;65.94;98913.42;227484;1231;139739;-63
2022/10/24 22:52:49;;;;;;;11.40;9.60;;;;;;;17.41;66.09;98915.23;226112;1237;140049;-64
2022/10/24 22:57:52;;;;;;;15.20;9.40;;;;;;;17.43;66.22;98911.98;226073;1242;139319;-65
2022/10/24 23:03:36;;;;;;;14.90;9.70;;;;;;;17.41;66.28;98910.54;226323;1238;139985;-63
2022/10/24 23:08:40;;;;;;;16.20;9.60;;;;;;;17.41;66.83;98908.25;226259;1247;139467;-62
2022/10/24 23:13:43;;;;;;;16.30;10.50;;;;;;;17.42;66.92;98905.64;227347;1236;139292;-62